createdAt,value
2023-02-02T00:02:43.384Z,10.77
2023-02-02T00:05:53.271Z,15.23
2023-02-02T00:08:57.618Z,18.13
2023-02-02T00:12:00.430Z,15.00
2023-02-02T00:15:01.840Z,12.87
2023-02-02T00:18:03.496Z,14.17
2023-02-02T00:21:05.045Z,10.37
2023-02-02T00:24:20.612Z,14.37
2023-02-02T00:27:21.990Z,17.67
2023-02-02T00:30:23.623Z,12.47
2023-02-02T00:33:25.008Z,12.13
2023-02-02T00:36:26.412Z,14.10
2023-02-02T00:39:27.989Z,14.20
2023-02-02T00:42:29.457Z,11.83
2023-02-02T00:45:31.171Z,12.70
2023-02-02T00:48:32.573Z,12.47
2023-02-02T00:51:34.429Z,11.07
2023-02-02T00:54:35.875Z,11.87
2023-02-02T00:57:37.452Z,12.70
2023-02-02T01:00:38.907Z,11.73
2023-02-02T01:03:40.331Z,15.63
2023-02-02T01:06:42.171Z,12.70
2023-02-02T01:09:43.692Z,15.30
2023-02-02T01:12:46.157Z,12.90
2023-02-02T01:15:47.529Z,10.07
2023-02-02T01:18:50.277Z,12.07
2023-02-02T01:21:51.708Z,14.70
2023-02-02T01:24:55.015Z,12.23
2023-02-02T01:27:57.268Z,13.23
2023-02-02T01:30:59.616Z,13.83
2023-02-02T01:34:01.024Z,10.77
2023-02-02T01:37:04.923Z,16.73
2023-02-02T01:40:07.294Z,16.47
2023-02-02T01:43:28.676Z,12.10
2023-02-02T01:46:35.119Z,9.80
2023-02-02T01:49:38.434Z,14.37
2023-02-02T01:52:41.800Z,14.73
2023-02-02T01:55:44.383Z,15.80
2023-02-02T01:58:46.395Z,10.30
2023-02-02T02:01:49.051Z,13.43
2023-02-02T02:04:51.613Z,13.23
2023-02-02T02:08:01.800Z,12.80
2023-02-02T02:11:03.283Z,13.17
2023-02-02T02:14:27.585Z,16.10
2023-02-02T02:17:38.563Z,15.30
2023-02-02T02:21:27.675Z,12.30
2023-02-02T02:25:23.090Z,14.57
2023-02-02T02:28:51.515Z,14.77
2023-02-02T02:32:23.567Z,13.10
2023-02-02T02:35:33.220Z,14.87
2023-02-02T02:38:47.380Z,13.17
2023-02-02T02:41:53.939Z,12.60
2023-02-02T02:44:57.156Z,12.73
2023-02-02T02:47:58.909Z,16.20
2023-02-02T02:51:08.756Z,14.27
2023-02-02T02:54:32.260Z,11.20
2023-02-02T02:57:44.670Z,16.27
2023-02-02T03:01:02.490Z,20.30
2023-02-02T03:04:43.226Z,15.87
2023-02-02T03:07:53.844Z,12.60
2023-02-02T03:10:57.874Z,15.70
2023-02-02T03:14:01.175Z,12.73
2023-02-02T03:17:03.036Z,9.97
2023-02-02T03:20:04.718Z,8.97
2023-02-02T03:23:06.104Z,13.60
2023-02-02T03:26:07.605Z,16.90
2023-02-02T03:29:09.003Z,9.93
2023-02-02T03:32:10.413Z,15.37
2023-02-02T03:35:11.879Z,17.60
2023-02-02T03:38:13.271Z,10.43
2023-02-02T03:41:15.179Z,14.50
2023-02-02T03:44:16.593Z,13.20
2023-02-02T03:47:18.052Z,13.23
2023-02-02T03:50:19.421Z,11.50
2023-02-02T03:53:21.710Z,13.67
2023-02-02T03:56:23.114Z,12.43
2023-02-02T03:59:24.531Z,12.60
2023-02-02T04:02:25.940Z,18.17
2023-02-02T04:05:27.837Z,16.60
2023-02-02T04:08:29.400Z,11.13
2023-02-02T04:11:30.929Z,11.70
2023-02-02T04:14:32.330Z,15.07
2023-02-02T04:17:35.218Z,16.63
2023-02-02T04:20:36.604Z,13.77
2023-02-02T04:23:38.055Z,9.90
2023-02-02T04:26:39.686Z,16.03
2023-02-02T04:29:41.113Z,16.13
2023-02-02T04:32:42.505Z,12.03
2023-02-02T04:35:44.000Z,16.43
2023-02-02T04:38:52.142Z,12.43
2023-02-02T04:41:53.531Z,10.80
2023-02-02T04:44:54.908Z,18.30
2023-02-02T04:47:56.289Z,15.60
2023-02-02T04:51:10.104Z,15.83
2023-02-02T04:54:11.552Z,12.80
2023-02-02T04:57:13.118Z,12.47
2023-02-02T05:00:14.896Z,14.80
2023-02-02T05:03:16.393Z,8.80
2023-02-02T05:06:19.407Z,14.37
2023-02-02T05:09:20.911Z,12.20
2023-02-02T05:12:22.277Z,13.27
2023-02-02T05:15:24.081Z,12.57
2023-02-02T05:18:25.815Z,12.10
2023-02-02T05:21:27.712Z,13.93
2023-02-02T05:24:29.125Z,12.43
2023-02-02T05:27:30.509Z,10.63
2023-02-02T05:30:33.565Z,13.03
2023-02-02T05:33:35.295Z,14.80
2023-02-02T05:36:36.746Z,9.17
2023-02-02T05:39:38.222Z,10.77
2023-02-02T05:42:39.604Z,15.50
2023-02-02T05:45:41.841Z,18.30
2023-02-02T05:48:43.299Z,17.03
2023-02-02T05:51:47.778Z,11.03
2023-02-02T05:54:49.263Z,9.93
2023-02-02T05:57:50.695Z,15.07
2023-02-02T06:00:52.572Z,13.07
2023-02-02T06:03:55.031Z,9.83
2023-02-02T06:06:56.536Z,14.00
2023-02-02T06:09:58.230Z,12.30
2023-02-02T06:12:59.620Z,12.73
2023-02-02T06:16:01.086Z,9.90
2023-02-02T06:19:02.726Z,11.80
2023-02-02T06:22:04.153Z,11.77
2023-02-02T06:25:07.799Z,8.47
2023-02-02T06:28:09.401Z,14.37
2023-02-02T06:31:11.787Z,16.37
2023-02-02T06:34:16.063Z,12.43
2023-02-02T06:37:17.446Z,15.90
2023-02-02T06:40:18.874Z,14.37
2023-02-02T06:43:20.386Z,16.07
2023-02-02T06:46:21.924Z,9.83
2023-02-02T06:49:23.327Z,8.93
2023-02-02T06:52:24.710Z,12.37
2023-02-02T06:55:26.490Z,11.67
2023-02-02T06:58:29.989Z,9.17
2023-02-02T07:01:31.671Z,14.47
2023-02-02T07:04:33.079Z,10.70
2023-02-02T07:07:35.327Z,13.83
2023-02-02T07:11:12.636Z,18.07
2023-02-02T07:13:59.870Z,10.37
2023-02-02T07:17:01.396Z,20.43
2023-02-02T07:20:02.989Z,10.27
2023-02-02T07:23:04.688Z,9.50
2023-02-02T07:26:10.590Z,11.63
2023-02-02T07:29:16.391Z,10.80
2023-02-02T07:32:17.847Z,10.13
2023-02-02T07:35:19.232Z,12.17
2023-02-02T07:38:20.821Z,9.93
2023-02-02T07:41:22.911Z,12.33
2023-02-02T07:44:24.299Z,12.47
2023-02-02T07:47:26.122Z,11.20
2023-02-02T07:50:29.376Z,11.30
2023-02-02T07:53:31.494Z,11.67
2023-02-02T07:56:33.072Z,8.57
2023-02-02T07:59:34.530Z,11.07
2023-02-02T08:02:35.945Z,14.23
2023-02-02T08:05:37.458Z,9.97
2023-02-02T08:08:38.837Z,9.97
2023-02-02T08:11:40.303Z,13.20
2023-02-02T08:14:42.328Z,12.73
2023-02-02T08:17:49.759Z,12.90
2023-02-02T08:20:52.582Z,12.17
2023-02-02T08:23:54.176Z,15.73
2023-02-02T08:26:55.603Z,11.40
2023-02-02T08:29:57.049Z,9.47
2023-02-02T08:32:58.446Z,13.60
2023-02-02T08:36:00.089Z,10.23
2023-02-02T08:39:04.265Z,11.30
2023-02-02T08:42:05.676Z,11.07
2023-02-02T08:46:02.362Z,10.37
2023-02-02T08:48:29.229Z,13.67
2023-02-02T08:51:30.809Z,14.53
2023-02-02T08:54:32.199Z,13.93
2023-02-02T08:57:34.419Z,11.90
2023-02-02T09:00:35.881Z,12.30
2023-02-02T09:03:40.058Z,11.17
2023-02-02T09:06:42.156Z,14.33
2023-02-02T09:09:43.569Z,11.20
2023-02-02T09:12:44.979Z,8.80
2023-02-02T09:15:46.342Z,11.17
2023-02-02T09:18:47.784Z,14.03
2023-02-02T09:21:50.421Z,10.43
2023-02-02T09:24:51.824Z,9.47
2023-02-02T09:27:53.209Z,10.33
2023-02-02T09:30:54.585Z,12.00
2023-02-02T09:33:59.974Z,11.40
2023-02-02T09:37:01.403Z,12.00
2023-02-02T09:40:03.050Z,12.97
2023-02-02T09:43:34.702Z,10.93
2023-02-02T09:46:57.623Z,10.90
2023-02-02T09:50:05.970Z,10.80
2023-02-02T09:53:20.859Z,13.50
2023-02-02T09:56:54.673Z,10.00
2023-02-02T09:59:56.439Z,12.83
2023-02-02T10:03:20.879Z,12.67
2023-02-02T10:06:38.506Z,16.80
2023-02-02T10:09:59.473Z,18.00
2023-02-02T10:13:15.986Z,15.87
2023-02-02T10:16:19.447Z,13.80
2023-02-02T10:19:25.266Z,11.90
2023-02-02T10:22:29.550Z,11.03
2023-02-02T10:25:33.540Z,10.50
2023-02-02T10:28:48.298Z,14.10
2023-02-02T10:32:23.077Z,11.13
2023-02-02T10:35:39.202Z,13.60
2023-02-02T10:38:58.367Z,13.37
2023-02-02T10:42:13.969Z,10.87
2023-02-02T10:45:19.024Z,9.97
2023-02-02T10:48:28.983Z,10.07
2023-02-02T10:51:30.452Z,10.37
2023-02-02T10:54:57.801Z,12.80
2023-02-02T10:58:24.656Z,11.20
2023-02-02T11:01:26.219Z,9.43
2023-02-02T11:04:47.791Z,11.13
2023-02-02T11:07:49.913Z,17.37
2023-02-02T11:10:54.728Z,13.00
2023-02-02T11:14:03.250Z,13.07
2023-02-02T11:17:06.389Z,9.40
2023-02-02T11:20:32.306Z,9.90
2023-02-02T11:23:33.729Z,8.37
2023-02-02T11:26:56.938Z,12.93
2023-02-02T11:30:00.933Z,9.77
2023-02-02T11:33:33.392Z,11.23
2023-02-02T11:36:34.806Z,7.03
2023-02-02T11:39:36.200Z,8.50
2023-02-02T11:42:37.619Z,7.73
2023-02-02T11:45:42.685Z,7.53
2023-02-02T11:48:59.142Z,7.63
2023-02-02T11:52:07.107Z,5.80
2023-02-02T11:55:18.683Z,11.30
2023-02-02T11:58:24.919Z,7.87
2023-02-02T12:01:39.390Z,8.47
2023-02-02T12:04:40.888Z,5.27
2023-02-02T12:07:44.381Z,6.00
2023-02-02T12:10:55.621Z,6.93
2023-02-02T12:14:05.296Z,6.93
2023-02-02T12:17:38.825Z,10.43
2023-02-02T12:20:57.387Z,7.20
2023-02-02T12:24:26.956Z,5.33
2023-02-02T12:28:13.393Z,7.10
2023-02-02T12:31:33.639Z,10.70
2023-02-02T12:34:50.251Z,4.57
2023-02-02T12:38:13.717Z,9.03
2023-02-02T12:41:38.046Z,7.10
2023-02-02T12:44:51.162Z,5.37
2023-02-02T12:48:30.828Z,7.37
2023-02-02T12:51:44.635Z,7.13
2023-02-02T12:55:19.839Z,7.60
2023-02-02T12:58:32.782Z,10.27
2023-02-02T13:02:20.903Z,5.77
2023-02-02T13:05:31.450Z,8.27
2023-02-02T13:08:51.861Z,6.50
2023-02-02T13:12:01.919Z,9.47
2023-02-02T13:15:07.879Z,4.57
2023-02-02T13:18:19.638Z,5.13
2023-02-02T13:21:23.612Z,8.87
2023-02-02T13:24:31.062Z,8.50
2023-02-02T13:27:32.995Z,4.63
2023-02-02T13:30:38.277Z,10.20
2023-02-02T13:33:43.581Z,4.47
2023-02-02T13:36:53.398Z,4.03
2023-02-02T13:40:03.135Z,8.47
2023-02-02T13:43:24.333Z,9.33
2023-02-02T13:46:34.151Z,7.07
2023-02-02T13:49:43.309Z,10.87
2023-02-02T13:52:59.903Z,4.43
2023-02-02T13:56:23.897Z,8.60
2023-02-02T13:59:52.416Z,4.67
2023-02-02T14:02:57.187Z,6.27
2023-02-02T14:06:23.191Z,6.03
2023-02-02T14:09:30.535Z,7.73
2023-02-02T14:12:35.180Z,6.40
2023-02-02T14:15:43.236Z,4.97
2023-02-02T14:18:59.600Z,9.33
2023-02-02T14:22:02.724Z,7.30
2023-02-02T14:25:29.965Z,9.13
2023-02-02T14:28:44.767Z,6.23
2023-02-02T14:31:53.973Z,11.67
2023-02-02T14:34:56.923Z,7.73
2023-02-02T14:38:05.840Z,8.10
2023-02-02T14:41:42.984Z,9.77
2023-02-02T14:45:25.215Z,11.20
2023-02-02T14:48:26.861Z,15.33
2023-02-02T14:51:31.589Z,7.83
2023-02-02T14:54:37.592Z,6.07
2023-02-02T14:57:38.996Z,8.20
2023-02-02T15:00:40.450Z,6.10
2023-02-02T15:04:14.091Z,6.37
2023-02-02T15:07:24.693Z,8.30
2023-02-02T15:10:57.966Z,5.37
2023-02-02T15:14:07.188Z,8.67
2023-02-02T15:17:34.466Z,6.57
2023-02-02T15:20:42.879Z,9.90
2023-02-02T15:23:46.261Z,10.23
2023-02-02T15:26:49.566Z,8.20
2023-02-02T15:30:02.283Z,9.97
2023-02-02T15:33:15.197Z,9.63
2023-02-02T15:36:27.461Z,5.80
2023-02-02T15:39:51.402Z,6.67
2023-02-02T15:42:58.696Z,11.03
2023-02-02T15:46:10.985Z,7.07
2023-02-02T15:49:32.709Z,10.20
2023-02-02T15:52:46.305Z,9.20
2023-02-02T15:55:48.050Z,8.93
2023-02-02T15:58:51.579Z,6.53
2023-02-02T16:02:23.992Z,8.20
2023-02-02T16:05:41.591Z,7.77
2023-02-02T16:08:43.267Z,7.40
2023-02-02T16:11:47.500Z,6.93
2023-02-02T16:14:55.322Z,7.57
2023-02-02T16:18:04.596Z,8.57
2023-02-02T16:21:15.184Z,8.47
2023-02-02T16:24:42.928Z,8.13
2023-02-02T16:27:47.672Z,7.73
2023-02-02T16:30:51.689Z,10.60
2023-02-02T16:33:53.262Z,8.37
2023-02-02T16:37:07.346Z,6.97
2023-02-02T16:40:26.446Z,7.80
2023-02-02T16:43:29.678Z,5.57
2023-02-02T16:46:49.822Z,9.17
2023-02-02T16:50:18.487Z,6.03
2023-02-02T16:53:24.159Z,5.00
2023-02-02T16:56:40.685Z,9.77
2023-02-02T16:59:47.594Z,9.07
2023-02-02T17:03:00.288Z,6.87
2023-02-02T17:06:03.046Z,8.50
2023-02-02T17:09:33.215Z,10.07
2023-02-02T17:12:35.927Z,4.53
2023-02-02T17:15:37.432Z,5.00
2023-02-02T17:18:39.538Z,5.30
2023-02-02T17:21:41.429Z,7.27
2023-02-02T17:24:48.831Z,5.57
2023-02-02T17:27:50.419Z,4.80
2023-02-02T17:30:58.690Z,3.73
2023-02-02T17:34:00.247Z,4.93
2023-02-02T17:37:01.765Z,2.10
2023-02-02T17:40:03.226Z,9.20
2023-02-02T17:43:06.127Z,3.37
2023-02-02T17:46:11.905Z,5.20
2023-02-02T17:49:13.426Z,6.37
2023-02-02T17:52:14.855Z,3.77
2023-02-02T17:55:21.265Z,4.73
2023-02-02T17:58:22.756Z,5.57
2023-02-02T18:01:24.240Z,3.93
2023-02-02T18:04:26.847Z,4.90
2023-02-02T18:07:28.347Z,4.63
2023-02-02T18:10:30.184Z,4.07
2023-02-02T18:13:31.849Z,6.20
2023-02-02T18:16:33.287Z,5.20
2023-02-02T18:19:34.696Z,5.37
2023-02-02T18:22:36.078Z,7.17
2023-02-02T18:25:39.228Z,6.03
2023-02-02T18:28:41.518Z,3.97
2023-02-02T18:31:42.989Z,6.10
2023-02-02T18:34:45.557Z,5.60
2023-02-02T18:37:47.065Z,4.80
2023-02-02T18:40:55.807Z,3.67
2023-02-02T18:43:57.303Z,4.00
2023-02-02T18:46:58.727Z,8.07
2023-02-02T18:50:00.133Z,3.60
2023-02-02T18:53:01.573Z,5.80
2023-02-02T18:56:07.498Z,4.63
2023-02-02T18:59:09.050Z,6.13
2023-02-02T19:02:15.293Z,3.40
2023-02-02T19:05:35.339Z,5.33
2023-02-02T19:08:36.824Z,4.50
2023-02-02T19:11:44.884Z,3.60
2023-02-02T19:14:46.419Z,5.47
2023-02-02T19:17:51.518Z,4.47
2023-02-02T19:20:53.202Z,4.40
2023-02-02T19:23:54.583Z,3.97
2023-02-02T19:26:56.116Z,5.83
2023-02-02T19:30:03.917Z,4.00
2023-02-02T19:33:11.954Z,4.83
2023-02-02T19:36:19.533Z,5.47
2023-02-02T19:39:28.142Z,5.63
2023-02-02T19:42:29.571Z,6.47
2023-02-02T19:45:35.220Z,7.53
2023-02-02T19:48:39.021Z,5.23
2023-02-02T19:51:46.415Z,4.90
2023-02-02T19:54:48.935Z,6.13
2023-02-02T19:57:52.090Z,5.90
2023-02-02T20:00:56.014Z,5.13
2023-02-02T20:03:58.451Z,4.33
2023-02-02T20:07:00.027Z,5.57
2023-02-02T20:10:20.816Z,5.90
2023-02-02T20:13:24.001Z,5.60
2023-02-02T20:16:35.849Z,4.93
2023-02-02T20:19:41.309Z,6.33
2023-02-02T20:22:43.767Z,7.87
2023-02-02T20:25:45.595Z,10.97
2023-02-02T20:28:48.477Z,4.73
2023-02-02T20:31:52.775Z,8.03
2023-02-02T20:34:57.343Z,7.47
2023-02-02T20:37:59.173Z,5.60
2023-02-02T20:41:00.562Z,4.87
2023-02-02T20:44:01.998Z,8.90
2023-02-02T20:47:04.064Z,6.63
2023-02-02T20:50:06.703Z,6.97
2023-02-02T20:53:08.202Z,8.00
2023-02-02T20:56:09.674Z,6.80
2023-02-02T20:59:11.067Z,7.90
2023-02-02T21:02:23.412Z,6.73
2023-02-02T21:05:25.280Z,6.47
2023-02-02T21:08:26.850Z,7.93
2023-02-02T21:11:28.243Z,8.00
2023-02-02T21:14:29.633Z,6.63
2023-02-02T21:17:31.147Z,6.53
2023-02-02T21:20:32.790Z,10.87
2023-02-02T21:23:34.220Z,5.80
2023-02-02T21:26:35.632Z,7.93
2023-02-02T21:29:37.374Z,7.07
2023-02-02T21:32:38.766Z,11.13
2023-02-02T21:35:40.144Z,6.57
2023-02-02T21:38:41.545Z,8.40
2023-02-02T21:41:43.438Z,4.50
2023-02-02T21:44:51.416Z,6.40
2023-02-02T21:47:56.180Z,7.00
2023-02-02T21:50:57.751Z,6.87
2023-02-02T21:54:01.560Z,7.33
2023-02-02T21:57:13.945Z,8.40
2023-02-02T22:00:33.748Z,5.93
2023-02-02T22:03:38.179Z,7.90
2023-02-02T22:06:44.937Z,6.37
2023-02-02T22:09:48.440Z,8.97
2023-02-02T22:12:49.893Z,7.30
2023-02-02T22:15:53.059Z,6.30
2023-02-02T22:18:55.363Z,6.53
2023-02-02T22:22:08.940Z,8.17
2023-02-02T22:25:16.317Z,7.67
2023-02-02T22:28:27.154Z,10.23
2023-02-02T22:31:28.679Z,7.53
2023-02-02T22:34:30.139Z,9.30
2023-02-02T22:37:31.614Z,10.90
2023-02-02T22:40:33.562Z,8.17
2023-02-02T22:43:35.015Z,6.90
2023-02-02T22:46:36.470Z,9.47
2023-02-02T22:49:37.948Z,5.97
2023-02-02T22:52:39.554Z,7.87
2023-02-02T22:55:41.257Z,6.30
2023-02-02T22:58:42.631Z,5.23
2023-02-02T23:01:44.039Z,6.97
2023-02-02T23:04:45.414Z,10.10
2023-02-02T23:07:47.693Z,8.53
2023-02-02T23:10:49.066Z,8.20
2023-02-02T23:13:50.484Z,5.83
2023-02-02T23:16:51.866Z,3.97
2023-02-02T23:19:53.249Z,6.83
2023-02-02T23:22:54.633Z,7.50
2023-02-02T23:25:56.019Z,10.23
2023-02-02T23:28:57.389Z,5.73
2023-02-02T23:31:59.140Z,8.07
2023-02-02T23:35:00.563Z,7.17
2023-02-02T23:38:01.973Z,6.40
2023-02-02T23:41:03.349Z,5.67
2023-02-02T23:44:04.946Z,8.37
2023-02-02T23:47:06.719Z,10.00
2023-02-02T23:50:09.278Z,3.90
2023-02-02T23:53:11.133Z,5.63
2023-02-02T23:56:12.537Z,7.00
2023-02-02T23:59:13.922Z,5.90
